sensor_id;sensor_type;location;lat;lon;timestamp;temperature;humidity
65559;DHT22;52203;51.998;5.140;2023-04-25T00:03:37;-0.14;118.99
65559;DHT22;52203;51.998;5.140;2023-04-25T00:06:28;-0.19;118.99
65559;DHT22;52203;51.998;5.140;2023-04-25T00:34:29;0.72;118.99
65559;DHT22;52203;51.998;5.140;2023-04-25T00:55:42;0.30;118.99
65559;DHT22;52203;51.998;5.140;2023-04-25T01:02:21;0.07;118.99
65559;DHT22;52203;51.998;5.140;2023-04-25T01:46:37;-0.57;118.99
65559;DHT22;52203;51.998;5.140;2023-04-25T01:49:11;-0.58;118.99
65559;DHT22;52203;51.998;5.140;2023-04-25T02:05:41;-0.74;118.99
65559;DHT22;52203;51.998;5.140;2023-04-25T02:19:34;-0.80;118.99
65559;DHT22;52203;51.998;5.140;2023-04-25T02:27:05;-0.81;118.99
65559;DHT22;52203;51.998;5.140;2023-04-25T02:36:24;-0.67;118.99
65559;DHT22;52203;51.998;5.140;2023-04-25T03:00:56;-0.81;118.99
65559;DHT22;52203;51.998;5.140;2023-04-25T03:04:25;-0.90;118.99
65559;DHT22;52203;51.998;5.140;2023-04-25T03:17:30;-0.49;118.99
65559;DHT22;52203;51.998;5.140;2023-04-25T03:24:43;-0.24;118.99
65559;DHT22;52203;51.998;5.140;2023-04-25T03:30:42;-0.24;118.99
65559;DHT22;52203;51.998;5.140;2023-04-25T03:44:23;0.19;118.99
65559;DHT22;52203;51.998;5.140;2023-04-25T04:29:07;0.39;118.99
65559;DHT22;52203;51.998;5.140;2023-04-25T04:42:03;0.49;118.99
65559;DHT22;52203;51.998;5.140;2023-04-25T04:47:48;0.52;118.99
65559;DHT22;52203;51.998;5.140;2023-04-25T04:50:19;0.50;118.99
65559;DHT22;52203;51.998;5.140;2023-04-25T05:00:55;0.50;118.99
65559;DHT22;52203;51.998;5.140;2023-04-25T05:11:12;0.52;118.99
65559;DHT22;52203;51.998;5.140;2023-04-25T05:14:05;0.68;118.99
65559;DHT22;52203;51.998;5.140;2023-04-25T05:16:51;0.81;118.99
65559;DHT22;52203;51.998;5.140;2023-04-25T05:19:19;0.94;118.99
65559;DHT22;52203;51.998;5.140;2023-04-25T05:21:45;1.01;118.99
65559;DHT22;52203;51.998;5.140;2023-04-25T05:24:11;1.07;118.99
65559;DHT22;52203;51.998;5.140;2023-04-25T05:26:37;1.17;118.99
65559;DHT22;52203;51.998;5.140;2023-04-25T05:29:14;1.24;118.99
65559;DHT22;52203;51.998;5.140;2023-04-25T05:31:39;1.32;118.99
65559;DHT22;52203;51.998;5.140;2023-04-25T05:34:05;1.41;118.99
65559;DHT22;52203;51.998;5.140;2023-04-25T05:36:33;1.48;118.99
65559;DHT22;52203;51.998;5.140;2023-04-25T05:39:07;1.58;118.99
65559;DHT22;52203;51.998;5.140;2023-04-25T05:41:34;1.69;118.99
65559;DHT22;52203;51.998;5.140;2023-04-25T05:43:59;1.77;118.99
65559;DHT22;52203;51.998;5.140;2023-04-25T05:46:25;1.80;118.99
65559;DHT22;52203;51.998;5.140;2023-04-25T05:48:50;1.87;118.99
65559;DHT22;52203;51.998;5.140;2023-04-25T05:51:16;1.95;118.99
65559;DHT22;52203;51.998;5.140;2023-04-25T05:53:43;1.98;118.99
65559;DHT22;52203;51.998;5.140;2023-04-25T05:56:09;2.02;118.99
65559;DHT22;52203;51.998;5.140;2023-04-25T05:58:34;2.08;118.99
65559;DHT22;52203;51.998;5.140;2023-04-25T06:01:00;2.15;118.99
65559;DHT22;52203;51.998;5.140;2023-04-25T06:03:25;2.21;118.99
65559;DHT22;52203;51.998;5.140;2023-04-25T06:05:51;2.27;118.99
65559;DHT22;52203;51.998;5.140;2023-04-25T06:08:16;2.35;118.99
65559;DHT22;52203;51.998;5.140;2023-04-25T06:10:42;2.43;118.99
65559;DHT22;52203;51.998;5.140;2023-04-25T06:13:07;2.53;118.99
65559;DHT22;52203;51.998;5.140;2023-04-25T06:15:33;2.60;118.99
65559;DHT22;52203;51.998;5.140;2023-04-25T06:17:58;2.72;118.99
65559;DHT22;52203;51.998;5.140;2023-04-25T06:20:24;2.83;118.99
65559;DHT22;52203;51.998;5.140;2023-04-25T06:22:50;2.53;118.99
65559;DHT22;52203;51.998;5.140;2023-04-25T06:25:18;2.86;118.99
65559;DHT22;52203;51.998;5.140;2023-04-25T06:27:43;3.04;118.99
65559;DHT22;52203;51.998;5.140;2023-04-25T06:30:09;3.56;118.99
65559;DHT22;52203;51.998;5.140;2023-04-25T06:32:37;4.49;118.99
65559;DHT22;52203;51.998;5.140;2023-04-25T06:35:03;4.98;118.99
65559;DHT22;52203;51.998;5.140;2023-04-25T06:37:29;5.32;118.99
65559;DHT22;52203;51.998;5.140;2023-04-25T06:39:54;5.51;118.99
65559;DHT22;52203;51.998;5.140;2023-04-25T06:42:20;5.77;118.99
65559;DHT22;52203;51.998;5.140;2023-04-25T06:44:45;6.06;118.99
65559;DHT22;52203;51.998;5.140;2023-04-25T06:47:11;5.89;118.99
65559;DHT22;52203;51.998;5.140;2023-04-25T06:49:36;5.90;118.99
65559;DHT22;52203;51.998;5.140;2023-04-25T06:52:02;5.77;118.99
65559;DHT22;52203;51.998;5.140;2023-04-25T06:54:28;5.66;118.99
65559;DHT22;52203;51.998;5.140;2023-04-25T06:56:55;5.55;118.99
65559;DHT22;52203;51.998;5.140;2023-04-25T06:59:21;5.50;118.99
65559;DHT22;52203;51.998;5.140;2023-04-25T07:01:46;5.37;118.99
65559;DHT22;52203;51.998;5.140;2023-04-25T07:04:12;5.37;118.99
65559;DHT22;52203;51.998;5.140;2023-04-25T07:06:37;5.36;118.99
65559;DHT22;52203;51.998;5.140;2023-04-25T07:09:08;5.25;118.99
65559;DHT22;52203;51.998;5.140;2023-04-25T07:11:34;5.21;118.99
65559;DHT22;52203;51.998;5.140;2023-04-25T07:13:59;5.25;118.99
65559;DHT22;52203;51.998;5.140;2023-04-25T07:16:25;5.33;118.99
65559;DHT22;52203;51.998;5.140;2023-04-25T07:18:50;5.43;118.99
65559;DHT22;52203;51.998;5.140;2023-04-25T07:21:16;5.38;118.99
65559;DHT22;52203;51.998;5.140;2023-04-25T07:23:41;5.21;118.99
65559;DHT22;52203;51.998;5.140;2023-04-25T07:26:07;5.26;118.99
65559;DHT22;52203;51.998;5.140;2023-04-25T07:28:33;5.21;118.99
65559;DHT22;52203;51.998;5.140;2023-04-25T07:30:58;5.09;118.99
65559;DHT22;52203;51.998;5.140;2023-04-25T07:33:24;5.00;118.99
65559;DHT22;52203;51.998;5.140;2023-04-25T07:35:49;5.01;118.99
65559;DHT22;52203;51.998;5.140;2023-04-25T07:38:15;5.01;118.99
65559;DHT22;52203;51.998;5.140;2023-04-25T07:40:40;5.00;118.99
65559;DHT22;52203;51.998;5.140;2023-04-25T07:43:06;4.98;118.99
65559;DHT22;52203;51.998;5.140;2023-04-25T07:45:32;4.88;118.99
65559;DHT22;52203;51.998;5.140;2023-04-25T07:47:57;4.72;118.99
65559;DHT22;52203;51.998;5.140;2023-04-25T07:50:23;4.57;118.99
65559;DHT22;52203;51.998;5.140;2023-04-25T07:52:48;4.30;118.99
65559;DHT22;52203;51.998;5.140;2023-04-25T07:55:14;4.19;118.99
65559;DHT22;52203;51.998;5.140;2023-04-25T07:57:40;4.03;118.99
65559;DHT22;52203;51.998;5.140;2023-04-25T08:00:06;4.02;118.99
65559;DHT22;52203;51.998;5.140;2023-04-25T08:02:35;4.08;118.99
65559;DHT22;52203;51.998;5.140;2023-04-25T08:05:00;4.98;118.99
65559;DHT22;52203;51.998;5.140;2023-04-25T08:07:26;6.66;118.99
65559;DHT22;52203;51.998;5.140;2023-04-25T08:09:52;7.45;118.99
65559;DHT22;52203;51.998;5.140;2023-04-25T08:12:17;8.42;118.99
65559;DHT22;52203;51.998;5.140;2023-04-25T08:14:43;9.71;118.99
65559;DHT22;52203;51.998;5.140;2023-04-25T08:17:09;10.45;118.99
65559;DHT22;52203;51.998;5.140;2023-04-25T08:19:35;10.28;118.99
65559;DHT22;52203;51.998;5.140;2023-04-25T08:22:00;9.97;118.99
65559;DHT22;52203;51.998;5.140;2023-04-25T08:24:26;10.79;118.99
65559;DHT22;52203;51.998;5.140;2023-04-25T08:26:52;10.53;118.99
65559;DHT22;52203;51.998;5.140;2023-04-25T08:29:19;10.30;118.99
65559;DHT22;52203;51.998;5.140;2023-04-25T08:31:44;9.79;118.99
65559;DHT22;52203;51.998;5.140;2023-04-25T08:34:10;9.16;118.99
65559;DHT22;52203;51.998;5.140;2023-04-25T08:36:36;9.21;118.99
65559;DHT22;52203;51.998;5.140;2023-04-25T08:39:01;9.19;118.99
65559;DHT22;52203;51.998;5.140;2023-04-25T08:41:27;9.22;118.99
65559;DHT22;52203;51.998;5.140;2023-04-25T08:43:55;9.23;118.99
65559;DHT22;52203;51.998;5.140;2023-04-25T08:46:21;9.24;118.99
65559;DHT22;52203;51.998;5.140;2023-04-25T08:48:48;9.37;118.99
65559;DHT22;52203;51.998;5.140;2023-04-25T08:51:19;10.83;118.99
65559;DHT22;52203;51.998;5.140;2023-04-25T08:53:49;9.82;118.99
65559;DHT22;52203;51.998;5.140;2023-04-25T08:56:16;9.70;118.99
65559;DHT22;52203;51.998;5.140;2023-04-25T08:58:49;10.12;118.99
65559;DHT22;52203;51.998;5.140;2023-04-25T09:01:18;9.63;118.99
65559;DHT22;52203;51.998;5.140;2023-04-25T09:03:44;9.46;118.99
65559;DHT22;52203;51.998;5.140;2023-04-25T09:06:12;9.31;118.99
65559;DHT22;52203;51.998;5.140;2023-04-25T09:08:38;9.24;118.99
65559;DHT22;52203;51.998;5.140;2023-04-25T09:11:06;8.88;118.99
65559;DHT22;52203;51.998;5.140;2023-04-25T09:13:31;9.02;118.99
65559;DHT22;52203;51.998;5.140;2023-04-25T09:15:58;8.85;118.99
65559;DHT22;52203;51.998;5.140;2023-04-25T09:18:30;8.74;118.99
65559;DHT22;52203;51.998;5.140;2023-04-25T09:21:10;8.57;118.99
65559;DHT22;52203;51.998;5.140;2023-04-25T09:23:48;8.24;118.99
65559;DHT22;52203;51.998;5.140;2023-04-25T09:26:16;7.72;118.99
65559;DHT22;52203;51.998;5.140;2023-04-25T09:28:42;7.25;118.99
65559;DHT22;52203;51.998;5.140;2023-04-25T09:31:10;6.82;118.99
65559;DHT22;52203;51.998;5.140;2023-04-25T09:33:40;6.24;118.99
65559;DHT22;52203;51.998;5.140;2023-04-25T09:36:09;5.80;118.99
65559;DHT22;52203;51.998;5.140;2023-04-25T09:38:45;5.63;118.99
65559;DHT22;52203;51.998;5.140;2023-04-25T09:41:12;5.68;118.99
65559;DHT22;52203;51.998;5.140;2023-04-25T09:43:38;5.89;118.99
65559;DHT22;52203;51.998;5.140;2023-04-25T09:46:10;6.01;118.99
65559;DHT22;52203;51.998;5.140;2023-04-25T09:48:37;6.00;118.99
65559;DHT22;52203;51.998;5.140;2023-04-25T09:53:39;5.74;118.99
65559;DHT22;52203;51.998;5.140;2023-04-25T09:56:07;5.47;118.99
65559;DHT22;52203;51.998;5.140;2023-04-25T09:58:34;5.67;118.99
65559;DHT22;52203;51.998;5.140;2023-04-25T10:01:02;5.95;118.99
65559;DHT22;52203;51.998;5.140;2023-04-25T10:03:33;6.10;118.99
65559;DHT22;52203;51.998;5.140;2023-04-25T10:06:00;6.07;118.99
65559;DHT22;52203;51.998;5.140;2023-04-25T10:08:31;6.13;118.99
65559;DHT22;52203;51.998;5.140;2023-04-25T10:11:08;6.05;118.99
65559;DHT22;52203;51.998;5.140;2023-04-25T10:13:35;5.75;118.99
65559;DHT22;52203;51.998;5.140;2023-04-25T10:16:02;5.63;118.99
65559;DHT22;52203;51.998;5.140;2023-04-25T10:18:29;5.40;118.99
65559;DHT22;52203;51.998;5.140;2023-04-25T10:20:56;5.21;118.99
65559;DHT22;52203;51.998;5.140;2023-04-25T10:23:23;5.12;118.99
65559;DHT22;52203;51.998;5.140;2023-04-25T10:25:50;4.98;118.99
65559;DHT22;52203;51.998;5.140;2023-04-25T10:28:17;4.96;118.99
65559;DHT22;52203;51.998;5.140;2023-04-25T10:31:02;5.59;118.99
65559;DHT22;52203;51.998;5.140;2023-04-25T10:33:39;5.67;118.99
65559;DHT22;52203;51.998;5.140;2023-04-25T10:36:17;5.74;118.99
65559;DHT22;52203;51.998;5.140;2023-04-25T10:38:44;5.84;118.99
65559;DHT22;52203;51.998;5.140;2023-04-25T10:41:11;5.71;118.99
65559;DHT22;52203;51.998;5.140;2023-04-25T10:43:42;6.05;118.99
65559;DHT22;52203;51.998;5.140;2023-04-25T10:46:19;6.24;118.99
65559;DHT22;52203;51.998;5.140;2023-04-25T10:48:59;6.38;118.99
65559;DHT22;52203;51.998;5.140;2023-04-25T10:56:31;7.10;118.99
65559;DHT22;52203;51.998;5.140;2023-04-25T10:59:17;7.41;118.99
65559;DHT22;52203;51.998;5.140;2023-04-25T11:01:45;7.67;118.99
65559;DHT22;52203;51.998;5.140;2023-04-25T11:04:22;8.02;118.99
65559;DHT22;52203;51.998;5.140;2023-04-25T11:09:26;8.53;118.99
65559;DHT22;52203;51.998;5.140;2023-04-25T11:11:58;8.72;118.99
65559;DHT22;52203;51.998;5.140;2023-04-25T11:14:25;8.97;118.99
65559;DHT22;52203;51.998;5.140;2023-04-25T11:16:58;8.68;118.99
65559;DHT22;52203;51.998;5.140;2023-04-25T11:19:25;8.91;118.99
65559;DHT22;52203;51.998;5.140;2023-04-25T11:21:54;8.98;118.99
65559;DHT22;52203;51.998;5.140;2023-04-25T11:24:20;10.40;118.99
65559;DHT22;52203;51.998;5.140;2023-04-25T11:26:50;8.31;118.99
65559;DHT22;52203;51.998;5.140;2023-04-25T11:29:15;7.83;118.99
65559;DHT22;52203;51.998;5.140;2023-04-25T11:31:44;6.89;118.99
65559;DHT22;52203;51.998;5.140;2023-04-25T11:34:10;6.52;118.99
65559;DHT22;52203;51.998;5.140;2023-04-25T11:36:38;6.13;118.99
65559;DHT22;52203;51.998;5.140;2023-04-25T11:39:03;5.77;118.99
65559;DHT22;52203;51.998;5.140;2023-04-25T11:41:32;5.55;118.99
65559;DHT22;52203;51.998;5.140;2023-04-25T11:43:57;5.46;118.99
65559;DHT22;52203;51.998;5.140;2023-04-25T11:46:23;5.42;118.99
65559;DHT22;52203;51.998;5.140;2023-04-25T11:48:48;5.37;118.99
65559;DHT22;52203;51.998;5.140;2023-04-25T11:51:15;5.40;118.99
65559;DHT22;52203;51.998;5.140;2023-04-25T11:53:42;5.40;118.99
65559;DHT22;52203;51.998;5.140;2023-04-25T11:56:10;5.46;118.99
65559;DHT22;52203;51.998;5.140;2023-04-25T11:59:02;5.54;118.99
65559;DHT22;52203;51.998;5.140;2023-04-25T12:01:29;5.61;118.99
65559;DHT22;52203;51.998;5.140;2023-04-25T12:03:55;5.74;118.99
65559;DHT22;52203;51.998;5.140;2023-04-25T12:06:21;5.92;118.99
65559;DHT22;52203;51.998;5.140;2023-04-25T12:09:03;6.14;118.99
65559;DHT22;52203;51.998;5.140;2023-04-25T12:11:32;6.31;118.99
65559;DHT22;52203;51.998;5.140;2023-04-25T12:14:04;6.53;118.99
65559;DHT22;52203;51.998;5.140;2023-04-25T12:16:45;6.36;118.99
65559;DHT22;52203;51.998;5.140;2023-04-25T12:19:18;6.06;118.99
65559;DHT22;52203;51.998;5.140;2023-04-25T12:21:44;5.60;118.99
65559;DHT22;52203;51.998;5.140;2023-04-25T12:24:14;5.27;118.99
65559;DHT22;52203;51.998;5.140;2023-04-25T12:26:50;5.26;118.99
65559;DHT22;52203;51.998;5.140;2023-04-25T12:29:22;6.91;118.99
65559;DHT22;52203;51.998;5.140;2023-04-25T12:31:51;5.93;118.99
65559;DHT22;52203;51.998;5.140;2023-04-25T12:34:21;5.57;118.99
65559;DHT22;52203;51.998;5.140;2023-04-25T12:36:47;5.51;118.99
65559;DHT22;52203;51.998;5.140;2023-04-25T12:39:21;5.59;118.99
65559;DHT22;52203;51.998;5.140;2023-04-25T12:41:48;6.00;118.99
65559;DHT22;52203;51.998;5.140;2023-04-25T12:44:14;6.41;118.99
65559;DHT22;52203;51.998;5.140;2023-04-25T12:46:39;6.82;118.99
65559;DHT22;52203;51.998;5.140;2023-04-25T12:49:06;7.27;118.99
65559;DHT22;52203;51.998;5.140;2023-04-25T12:51:36;7.58;118.99
65559;DHT22;52203;51.998;5.140;2023-04-25T12:54:03;7.61;118.99
65559;DHT22;52203;51.998;5.140;2023-04-25T12:56:30;7.83;118.99
65559;DHT22;52203;51.998;5.140;2023-04-25T12:58:56;7.86;118.99
65559;DHT22;52203;51.998;5.140;2023-04-25T13:01:22;8.07;118.99
65559;DHT22;52203;51.998;5.140;2023-04-25T13:03:48;8.00;118.99
65559;DHT22;52203;51.998;5.140;2023-04-25T13:06:14;8.62;118.99
65559;DHT22;52203;51.998;5.140;2023-04-25T13:08:40;8.33;118.99
65559;DHT22;52203;51.998;5.140;2023-04-25T13:11:06;8.33;118.99
65559;DHT22;52203;51.998;5.140;2023-04-25T13:13:32;8.14;118.99
65559;DHT22;52203;51.998;5.140;2023-04-25T13:16:03;7.99;118.99
65559;DHT22;52203;51.998;5.140;2023-04-25T13:18:30;7.69;118.99
65559;DHT22;52203;51.998;5.140;2023-04-25T13:20:56;7.47;118.99
65559;DHT22;52203;51.998;5.140;2023-04-25T13:23:22;7.41;118.99
65559;DHT22;52203;51.998;5.140;2023-04-25T13:25:48;7.41;118.99
65559;DHT22;52203;51.998;5.140;2023-04-25T13:28:14;7.27;118.99
65559;DHT22;52203;51.998;5.140;2023-04-25T13:30:40;7.25;118.99
65559;DHT22;52203;51.998;5.140;2023-04-25T13:33:06;7.14;118.99
65559;DHT22;52203;51.998;5.140;2023-04-25T13:35:33;7.16;118.99
65559;DHT22;52203;51.998;5.140;2023-04-25T13:37:58;7.19;118.99
65559;DHT22;52203;51.998;5.140;2023-04-25T13:40:24;7.33;118.99
65559;DHT22;52203;51.998;5.140;2023-04-25T13:42:50;7.43;118.99
65559;DHT22;52203;51.998;5.140;2023-04-25T13:45:16;7.65;118.99
65559;DHT22;52203;51.998;5.140;2023-04-25T13:47:42;7.73;118.99
65559;DHT22;52203;51.998;5.140;2023-04-25T13:50:07;7.76;118.99
65559;DHT22;52203;51.998;5.140;2023-04-25T13:52:33;7.96;118.99
65559;DHT22;52203;51.998;5.140;2023-04-25T13:54:59;8.12;118.99
65559;DHT22;52203;51.998;5.140;2023-04-25T13:57:26;8.20;118.99
65559;DHT22;52203;51.998;5.140;2023-04-25T13:59:51;8.44;118.99
65559;DHT22;52203;51.998;5.140;2023-04-25T14:02:18;8.55;118.99
65559;DHT22;52203;51.998;5.140;2023-04-25T14:04:43;8.60;118.99
65559;DHT22;52203;51.998;5.140;2023-04-25T14:07:09;8.66;118.99
65559;DHT22;52203;51.998;5.140;2023-04-25T14:09:36;8.41;118.99
65559;DHT22;52203;51.998;5.140;2023-04-25T14:12:02;8.47;118.99
65559;DHT22;52203;51.998;5.140;2023-04-25T14:14:27;8.38;118.99
65559;DHT22;52203;51.998;5.140;2023-04-25T14:16:53;8.35;118.99
65559;DHT22;52203;51.998;5.140;2023-04-25T14:19:22;8.21;118.99
65559;DHT22;52203;51.998;5.140;2023-04-25T14:21:48;8.02;118.99
65559;DHT22;52203;51.998;5.140;2023-04-25T14:24:14;7.90;118.99
65559;DHT22;52203;51.998;5.140;2023-04-25T14:26:40;7.86;118.99
65559;DHT22;52203;51.998;5.140;2023-04-25T14:29:06;7.60;118.99
65559;DHT22;52203;51.998;5.140;2023-04-25T14:31:37;7.69;118.99
65559;DHT22;52203;51.998;5.140;2023-04-25T14:34:04;7.64;118.99
65559;DHT22;52203;51.998;5.140;2023-04-25T14:36:31;7.73;118.99
65559;DHT22;52203;51.998;5.140;2023-04-25T14:38:57;7.76;118.99
65559;DHT22;52203;51.998;5.140;2023-04-25T14:41:24;7.84;118.99
65559;DHT22;52203;51.998;5.140;2023-04-25T14:43:50;7.83;118.99
65559;DHT22;52203;51.998;5.140;2023-04-25T14:46:15;7.72;118.99
65559;DHT22;52203;51.998;5.140;2023-04-25T14:48:42;7.48;118.99
65559;DHT22;52203;51.998;5.140;2023-04-25T14:51:07;7.28;118.99
65559;DHT22;52203;51.998;5.140;2023-04-25T14:53:33;7.13;118.99
65559;DHT22;52203;51.998;5.140;2023-04-25T14:55:58;6.85;118.99
65559;DHT22;52203;51.998;5.140;2023-04-25T14:58:24;6.61;118.99
65559;DHT22;52203;51.998;5.140;2023-04-25T15:00:50;6.52;118.99
65559;DHT22;52203;51.998;5.140;2023-04-25T15:03:16;6.38;118.99
65559;DHT22;52203;51.998;5.140;2023-04-25T15:05:42;6.25;118.99
65559;DHT22;52203;51.998;5.140;2023-04-25T15:08:08;6.25;118.99
65559;DHT22;52203;51.998;5.140;2023-04-25T15:10:34;6.26;118.99
65559;DHT22;52203;51.998;5.140;2023-04-25T15:13:00;6.16;118.99
65559;DHT22;52203;51.998;5.140;2023-04-25T15:15:26;6.17;118.99
65559;DHT22;52203;51.998;5.140;2023-04-25T15:17:52;6.17;118.99
65559;DHT22;52203;51.998;5.140;2023-04-25T15:20:18;6.17;118.99
65559;DHT22;52203;51.998;5.140;2023-04-25T15:22:44;6.24;118.99
65559;DHT22;52203;51.998;5.140;2023-04-25T15:25:14;6.29;118.99
65559;DHT22;52203;51.998;5.140;2023-04-25T15:27:41;6.40;118.99
65559;DHT22;52203;51.998;5.140;2023-04-25T15:30:13;6.53;118.99
65559;DHT22;52203;51.998;5.140;2023-04-25T15:32:45;6.64;118.99
65559;DHT22;52203;51.998;5.140;2023-04-25T15:35:11;6.65;118.99
65559;DHT22;52203;51.998;5.140;2023-04-25T15:37:37;6.61;118.99
65559;DHT22;52203;51.998;5.140;2023-04-25T15:40:05;6.48;118.99
65559;DHT22;52203;51.998;5.140;2023-04-25T15:42:52;6.37;118.99
65559;DHT22;52203;51.998;5.140;2023-04-25T15:45:26;6.22;118.99
65559;DHT22;52203;51.998;5.140;2023-04-25T15:47:55;6.17;118.99
65559;DHT22;52203;51.998;5.140;2023-04-25T15:50:22;6.09;118.99
65559;DHT22;52203;51.998;5.140;2023-04-25T15:52:48;6.07;118.99
65559;DHT22;52203;51.998;5.140;2023-04-25T15:55:14;5.97;118.99
65559;DHT22;52203;51.998;5.140;2023-04-25T15:57:42;5.91;118.99
65559;DHT22;52203;51.998;5.140;2023-04-25T16:00:08;5.74;118.99
65559;DHT22;52203;51.998;5.140;2023-04-25T16:02:43;5.64;118.99
65559;DHT22;52203;51.998;5.140;2023-04-25T16:05:09;5.45;118.99
65559;DHT22;52203;51.998;5.140;2023-04-25T16:07:40;5.74;118.99
65559;DHT22;52203;51.998;5.140;2023-04-25T16:10:07;5.33;118.99
65559;DHT22;52203;51.998;5.140;2023-04-25T16:12:33;5.17;118.99
65559;DHT22;52203;51.998;5.140;2023-04-25T16:14:59;5.22;118.99
65559;DHT22;52203;51.998;5.140;2023-04-25T16:17:25;5.25;118.99
65559;DHT22;52203;51.998;5.140;2023-04-25T16:19:52;5.32;118.99
65559;DHT22;52203;51.998;5.140;2023-04-25T16:22:17;5.36;118.99
65559;DHT22;52203;51.998;5.140;2023-04-25T16:24:43;5.32;118.99
65559;DHT22;52203;51.998;5.140;2023-04-25T16:27:09;5.26;118.99
65559;DHT22;52203;51.998;5.140;2023-04-25T16:29:35;5.23;118.99
65559;DHT22;52203;51.998;5.140;2023-04-25T16:32:00;5.23;118.99
65559;DHT22;52203;51.998;5.140;2023-04-25T16:34:26;4.52;118.99
65559;DHT22;52203;51.998;5.140;2023-04-25T16:36:52;4.49;118.99
65559;DHT22;52203;51.998;5.140;2023-04-25T16:39:18;4.53;118.99
65559;DHT22;52203;51.998;5.140;2023-04-25T16:41:43;4.57;118.99
65559;DHT22;52203;51.998;5.140;2023-04-25T16:44:09;4.62;118.99
65559;DHT22;52203;51.998;5.140;2023-04-25T16:46:34;4.69;118.99
65559;DHT22;52203;51.998;5.140;2023-04-25T16:49:00;4.72;118.99
65559;DHT22;52203;51.998;5.140;2023-04-25T16:51:25;4.73;118.99
65559;DHT22;52203;51.998;5.140;2023-04-25T16:53:52;4.74;118.99
65559;DHT22;52203;51.998;5.140;2023-04-25T16:56:18;4.72;118.99
65559;DHT22;52203;51.998;5.140;2023-04-25T16:58:44;4.72;118.99
65559;DHT22;52203;51.998;5.140;2023-04-25T17:01:10;4.71;118.99
65559;DHT22;52203;51.998;5.140;2023-04-25T17:03:40;4.75;118.99
65559;DHT22;52203;51.998;5.140;2023-04-25T17:06:05;4.75;118.99
65559;DHT22;52203;51.998;5.140;2023-04-25T17:08:31;4.77;118.99
65559;DHT22;52203;51.998;5.140;2023-04-25T17:10:57;4.74;118.99
65559;DHT22;52203;51.998;5.140;2023-04-25T17:13:24;4.74;118.99
65559;DHT22;52203;51.998;5.140;2023-04-25T17:15:49;4.75;118.99
65559;DHT22;52203;51.998;5.140;2023-04-25T17:18:15;4.75;118.99
65559;DHT22;52203;51.998;5.140;2023-04-25T17:20:41;4.74;118.99
65559;DHT22;52203;51.998;5.140;2023-04-25T17:23:07;4.71;118.99
65559;DHT22;52203;51.998;5.140;2023-04-25T17:25:32;4.73;118.99
65559;DHT22;52203;51.998;5.140;2023-04-25T17:27:58;4.72;118.99
65559;DHT22;52203;51.998;5.140;2023-04-25T17:30:24;4.67;118.99
65559;DHT22;52203;51.998;5.140;2023-04-25T17:32:49;4.62;118.99
65559;DHT22;52203;51.998;5.140;2023-04-25T17:35:14;4.52;118.99
65559;DHT22;52203;51.998;5.140;2023-04-25T17:37:41;5.72;118.99
65559;DHT22;52203;51.998;5.140;2023-04-25T17:40:08;5.48;118.99
65559;DHT22;52203;51.998;5.140;2023-04-25T17:42:37;4.13;118.99
65559;DHT22;52203;51.998;5.140;2023-04-25T17:45:03;5.37;118.99
65559;DHT22;52203;51.998;5.140;2023-04-25T17:47:28;3.92;118.99
65559;DHT22;52203;51.998;5.140;2023-04-25T17:49:54;3.82;118.99
65559;DHT22;52203;51.998;5.140;2023-04-25T17:52:21;4.97;118.99
65559;DHT22;52203;51.998;5.140;2023-04-25T17:54:46;4.42;118.99
65559;DHT22;52203;51.998;5.140;2023-04-25T17:57:12;4.17;118.99
65559;DHT22;52203;51.998;5.140;2023-04-25T17:59:38;3.28;118.99
65559;DHT22;52203;51.998;5.140;2023-04-25T18:02:03;3.14;118.99
65559;DHT22;52203;51.998;5.140;2023-04-25T18:04:29;3.11;118.99
65559;DHT22;52203;51.998;5.140;2023-04-25T18:06:54;3.04;118.99
65559;DHT22;52203;51.998;5.140;2023-04-25T18:09:20;4.39;118.99
65559;DHT22;52203;51.998;5.140;2023-04-25T18:11:48;4.01;118.99
65559;DHT22;52203;51.998;5.140;2023-04-25T18:14:14;3.95;118.99
65559;DHT22;52203;51.998;5.140;2023-04-25T18:16:42;3.80;118.99
65559;DHT22;52203;51.998;5.140;2023-04-25T18:19:08;3.71;118.99
65559;DHT22;52203;51.998;5.140;2023-04-25T18:21:43;3.60;118.99
65559;DHT22;52203;51.998;5.140;2023-04-25T18:24:13;3.57;118.99
65559;DHT22;52203;51.998;5.140;2023-04-25T18:26:38;3.40;118.99
65559;DHT22;52203;51.998;5.140;2023-04-25T18:29:04;3.53;118.99
65559;DHT22;52203;51.998;5.140;2023-04-25T18:31:31;2.27;118.99
65559;DHT22;52203;51.998;5.140;2023-04-25T18:33:57;2.25;118.99
65559;DHT22;52203;51.998;5.140;2023-04-25T18:36:23;2.21;118.99
65559;DHT22;52203;51.998;5.140;2023-04-25T18:38:48;2.20;118.99
65559;DHT22;52203;51.998;5.140;2023-04-25T18:41:18;3.03;118.99
65559;DHT22;52203;51.998;5.140;2023-04-25T18:43:44;3.06;118.99
65559;DHT22;52203;51.998;5.140;2023-04-25T18:46:09;2.31;118.99
65559;DHT22;52203;51.998;5.140;2023-04-25T18:48:35;2.22;118.99
65559;DHT22;52203;51.998;5.140;2023-04-25T18:51:01;1.79;118.99
65559;DHT22;52203;51.998;5.140;2023-04-25T18:53:26;1.75;118.99
65559;DHT22;52203;51.998;5.140;2023-04-25T18:55:52;1.66;118.99
65559;DHT22;52203;51.998;5.140;2023-04-25T18:58:18;1.55;118.99
65559;DHT22;52203;51.998;5.140;2023-04-25T19:00:43;1.48;118.99
65559;DHT22;52203;51.998;5.140;2023-04-25T19:03:09;1.40;118.99
65559;DHT22;52203;51.998;5.140;2023-04-25T19:05:35;1.34;118.99
65559;DHT22;52203;51.998;5.140;2023-04-25T19:08:00;1.28;118.99
65559;DHT22;52203;51.998;5.140;2023-04-25T19:10:26;1.22;118.99
65559;DHT22;52203;51.998;5.140;2023-04-25T19:12:53;1.17;118.99
65559;DHT22;52203;51.998;5.140;2023-04-25T19:15:19;1.09;118.99
65559;DHT22;52203;51.998;5.140;2023-04-25T19:17:44;1.12;118.99
65559;DHT22;52203;51.998;5.140;2023-04-25T19:20:11;1.17;118.99
65559;DHT22;52203;51.998;5.140;2023-04-25T19:22:36;1.09;118.99
65559;DHT22;52203;51.998;5.140;2023-04-25T19:25:05;0.82;118.99
65559;DHT22;52203;51.998;5.140;2023-04-25T19:27:39;0.78;118.99
65559;DHT22;52203;51.998;5.140;2023-04-25T19:30:26;0.66;118.99
65559;DHT22;52203;51.998;5.140;2023-04-25T19:33:24;0.57;118.99
65559;DHT22;52203;51.998;5.140;2023-04-25T19:49:08;0.28;118.99
65559;DHT22;52203;51.998;5.140;2023-04-25T19:52:27;0.21;118.99
65559;DHT22;52203;51.998;5.140;2023-04-25T20:09:06;-0.35;118.99
65559;DHT22;52203;51.998;5.140;2023-04-25T20:22:10;-0.46;118.99
65559;DHT22;52203;51.998;5.140;2023-04-25T20:24:56;-0.56;118.99
65559;DHT22;52203;51.998;5.140;2023-04-25T20:48:46;-0.71;118.99
65559;DHT22;52203;51.998;5.140;2023-04-25T20:55:59;-0.76;118.99
65559;DHT22;52203;51.998;5.140;2023-04-25T20:58:24;-0.82;118.99
65559;DHT22;52203;51.998;5.140;2023-04-25T21:01:43;-0.85;118.99
65559;DHT22;52203;51.998;5.140;2023-04-25T21:05:04;-0.91;118.99